createdAt,value
2022-10-10T13:05:08.274Z,2.92
2022-10-10T13:09:28.088Z,2.92
2022-10-10T13:13:33.496Z,3.40
2022-10-10T13:17:41.637Z,3.05
2022-10-10T13:21:43.562Z,3.50
2022-10-10T13:25:46.365Z,3.10
2022-10-10T13:29:48.517Z,2.80
2022-10-10T13:33:50.554Z,3.35
2022-10-10T13:41:59.508Z,3.50
2022-10-10T13:46:03.825Z,4.80
2022-10-10T13:50:24.964Z,4.15
2022-10-10T13:54:47.445Z,4.55
2022-10-10T13:58:53.982Z,4.78
2022-10-10T14:02:55.935Z,4.18
2022-10-10T14:07:03.649Z,5.30
2022-10-10T14:11:08.579Z,6.32
2022-10-10T14:15:49.857Z,5.82
2022-10-10T14:19:52.672Z,6.28
2022-10-10T14:23:54.603Z,6.35
2022-10-10T14:27:56.545Z,5.50
2022-10-10T14:31:58.488Z,5.88
2022-10-10T14:36:00.794Z,5.75
2022-10-10T14:40:03.101Z,6.70
2022-10-10T14:44:05.301Z,6.65
2022-10-10T14:52:09.729Z,6.30
2022-10-10T14:56:13.143Z,6.68
2022-10-10T15:00:18.981Z,6.57
2022-10-10T15:04:20.900Z,7.97
2022-10-10T15:08:22.819Z,6.10
2022-10-10T15:12:24.765Z,7.22
2022-10-10T15:16:26.953Z,7.00
2022-10-10T15:20:32.357Z,7.18
2022-10-10T15:24:34.656Z,8.20
2022-10-10T15:28:36.743Z,8.45
2022-10-10T15:36:41.803Z,7.63
2022-10-10T15:40:43.719Z,7.32
2022-10-10T15:44:47.216Z,7.15
2022-10-10T15:48:49.193Z,7.60
2022-10-10T15:52:51.088Z,6.60
2022-10-10T15:56:53.025Z,6.95
2022-10-10T16:00:54.969Z,6.88
2022-10-10T16:04:56.909Z,6.72
2022-10-10T16:09:23.428Z,5.85
2022-10-10T16:13:20.832Z,3.15
2022-10-10T16:17:23.812Z,1.50
2022-10-10T16:21:26.770Z,0.85
2022-10-10T16:25:28.717Z,1.00
2022-10-10T16:29:30.644Z,0.90
2022-10-10T16:33:33.977Z,0.77
2022-10-10T16:37:35.905Z,1.23
2022-10-10T16:41:53.183Z,1.17
2022-10-10T16:45:55.147Z,2.33
2022-10-10T16:49:57.128Z,1.63
2022-10-10T16:54:02.789Z,2.13
2022-10-10T16:58:04.721Z,4.65
2022-10-10T17:02:06.711Z,3.38
2022-10-10T17:06:13.185Z,2.33
2022-10-10T17:10:15.117Z,2.70
2022-10-10T17:14:17.074Z,2.38
2022-10-10T17:18:19.701Z,2.60
2022-10-10T17:22:21.636Z,2.92
2022-10-10T17:26:23.994Z,2.50
2022-10-10T17:30:25.968Z,2.00
2022-10-10T17:34:27.832Z,3.15
2022-10-10T17:38:39.700Z,3.13
2022-10-10T17:42:42.120Z,2.40
2022-10-10T17:46:45.256Z,2.15
2022-10-10T17:50:47.497Z,1.60
2022-10-10T17:54:49.546Z,1.77
2022-10-10T17:58:51.574Z,1.85
2022-10-10T18:02:53.496Z,2.78
2022-10-10T18:06:55.466Z,2.35
2022-10-10T18:10:57.364Z,3.15
2022-10-10T18:15:02.227Z,3.45
2022-10-10T18:19:05.839Z,3.20
2022-10-10T18:23:07.737Z,2.78
2022-10-10T18:27:09.662Z,3.17
2022-10-10T18:31:21.091Z,2.65
2022-10-10T18:35:23.131Z,1.93
2022-10-10T18:39:28.287Z,1.80
2022-10-10T18:43:33.441Z,2.88
2022-10-10T18:47:35.382Z,2.13
2022-10-10T18:51:41.363Z,5.88
2022-10-10T18:55:43.293Z,4.85
2022-10-10T18:59:45.220Z,5.25
2022-10-10T19:03:47.154Z,5.10
2022-10-10T19:07:49.097Z,6.68
2022-10-10T19:11:53.344Z,4.80
2022-10-10T19:15:55.830Z,3.40
2022-10-10T19:19:57.759Z,2.83
2022-10-10T19:24:01.169Z,2.63
2022-10-10T19:28:03.071Z,5.78
2022-10-10T19:32:05.149Z,3.03
2022-10-10T19:36:12.351Z,5.70
2022-10-10T19:40:14.238Z,5.82
2022-10-10T19:44:16.126Z,4.43
2022-10-10T19:48:19.805Z,4.60
2022-10-10T19:52:22.367Z,2.63
2022-10-10T19:56:25.803Z,2.75
2022-10-10T20:00:27.713Z,3.38
2022-10-10T20:04:29.621Z,2.50
2022-10-10T20:08:31.988Z,2.22
2022-10-10T20:12:34.674Z,2.00
2022-10-10T20:16:36.596Z,2.33
2022-10-10T20:20:43.106Z,1.98
2022-10-10T20:24:45.096Z,2.75
2022-10-10T20:28:47.420Z,2.58
2022-10-10T20:32:49.409Z,2.15
2022-10-10T20:36:51.277Z,1.83
2022-10-10T20:40:53.256Z,1.95
2022-10-10T20:44:55.233Z,1.73
2022-10-10T20:48:58.629Z,2.75
2022-10-10T20:53:00.604Z,3.17
2022-10-10T20:57:02.537Z,2.58
2022-10-10T21:01:10.572Z,2.10
2022-10-10T21:05:12.512Z,1.75
2022-10-10T21:09:15.769Z,2.15
2022-10-10T21:13:17.699Z,2.40
2022-10-10T21:17:19.559Z,2.50
2022-10-10T21:21:21.723Z,1.88
2022-10-10T21:29:25.522Z,1.53
2022-10-10T21:33:27.564Z,2.10
2022-10-10T21:37:30.578Z,1.85
2022-10-10T21:41:32.750Z,1.90
2022-10-10T21:49:37.895Z,1.52
2022-10-10T21:53:39.790Z,1.70
2022-10-10T21:57:41.693Z,2.05
2022-10-10T22:01:44.581Z,1.60
2022-10-10T22:05:46.535Z,2.17
2022-10-10T22:09:48.406Z,1.60
2022-10-10T22:13:50.793Z,1.75
2022-10-10T22:17:53.048Z,1.65
2022-10-10T22:21:54.915Z,1.80
2022-10-10T22:25:57.013Z,1.30
2022-10-10T22:29:58.869Z,1.52
2022-10-10T22:34:01.023Z,1.73
2022-10-10T22:42:05.402Z,1.30
2022-10-10T22:46:08.127Z,2.10
2022-10-10T22:50:11.004Z,1.20
2022-10-10T22:54:13.936Z,1.65
2022-10-10T22:58:15.854Z,1.45
2022-10-10T23:02:17.696Z,2.83
2022-10-10T23:06:19.539Z,1.70
2022-10-10T23:10:21.581Z,1.95
2022-10-10T23:14:23.463Z,1.52
2022-10-10T23:18:25.433Z,2.65
2022-10-10T23:22:27.346Z,1.60
2022-10-10T23:26:29.238Z,1.30
2022-10-10T23:30:31.141Z,1.50
2022-10-10T23:34:33.131Z,1.40
2022-10-10T23:38:35.154Z,1.95
2022-10-10T23:42:37.077Z,1.42
2022-10-10T23:46:39.101Z,1.10
2022-10-10T23:50:41.162Z,1.65
2022-10-10T23:54:43.072Z,1.20
2022-10-10T23:58:45.015Z,1.85
